createdAt,value
2023-05-02T00:00:11.511Z,59.30
2023-05-02T00:01:11.493Z,56.24
2023-05-02T00:02:11.541Z,58.01
2023-05-02T00:03:11.512Z,58.33
2023-05-02T00:04:11.584Z,58.01
2023-05-02T00:05:11.558Z,59.46
2023-05-02T00:06:11.476Z,56.88
2023-05-02T00:07:11.444Z,57.20
2023-05-02T00:08:11.431Z,55.91
2023-05-02T00:09:11.411Z,58.17
2023-05-02T00:10:11.411Z,56.88
2023-05-02T00:11:11.392Z,57.52
2023-05-02T00:12:11.382Z,56.40
2023-05-02T00:13:11.373Z,57.36
2023-05-02T00:14:11.343Z,58.97
2023-05-02T00:15:11.377Z,58.17
2023-05-02T00:16:11.363Z,58.17
2023-05-02T00:17:11.549Z,57.04
2023-05-02T00:18:11.376Z,56.72
2023-05-02T00:19:11.328Z,59.46
2023-05-02T00:20:11.369Z,58.97
2023-05-02T00:21:11.293Z,58.81
2023-05-02T00:22:11.293Z,59.46
2023-05-02T00:23:11.272Z,60.59
2023-05-02T00:24:11.289Z,58.49
2023-05-02T00:25:11.265Z,58.33
2023-05-02T00:26:11.242Z,59.62
2023-05-02T00:27:11.226Z,60.42
2023-05-02T00:28:11.255Z,61.71
2023-05-02T00:29:11.230Z,59.94
2023-05-02T00:30:11.241Z,59.78
2023-05-02T00:31:11.229Z,58.49
2023-05-02T00:32:11.178Z,59.14
2023-05-02T00:33:11.311Z,58.81
2023-05-02T00:34:11.197Z,58.01
2023-05-02T00:35:11.184Z,59.62
2023-05-02T00:36:11.142Z,58.01
2023-05-02T00:37:11.136Z,58.49
2023-05-02T00:38:11.122Z,59.94
2023-05-02T00:39:11.112Z,61.71
2023-05-02T00:40:11.127Z,59.94
2023-05-02T00:41:11.100Z,58.33
2023-05-02T00:42:11.094Z,58.49
2023-05-02T00:43:11.093Z,59.14
2023-05-02T00:44:11.063Z,60.26
2023-05-02T00:45:11.074Z,57.52
2023-05-02T00:46:11.083Z,59.46
2023-05-02T00:47:11.043Z,58.65
2023-05-02T00:48:11.158Z,58.33
2023-05-02T00:49:11.013Z,59.46
2023-05-02T00:50:11.037Z,61.07
2023-05-02T00:51:11.006Z,60.10
2023-05-02T00:52:10.992Z,58.65
2023-05-02T00:53:11.043Z,59.46
2023-05-02T00:54:10.986Z,59.78
2023-05-02T00:55:10.987Z,61.23
2023-05-02T00:56:10.944Z,61.87
2023-05-02T00:57:10.936Z,60.59
2023-05-02T00:58:10.953Z,61.55
2023-05-02T00:59:10.918Z,59.78
2023-05-02T01:00:10.947Z,59.30
2023-05-02T01:01:10.930Z,60.10
2023-05-02T01:02:10.918Z,58.33
2023-05-02T01:03:10.910Z,59.46
2023-05-02T01:04:10.937Z,58.17
2023-05-02T01:05:10.900Z,58.49
2023-05-02T01:06:10.869Z,60.59
2023-05-02T01:07:10.847Z,61.23
2023-05-02T01:08:10.832Z,61.23
2023-05-02T01:09:10.821Z,59.94
2023-05-02T01:10:10.845Z,59.62
2023-05-02T01:11:10.789Z,60.42
2023-05-02T01:12:10.799Z,58.97
2023-05-02T01:13:10.799Z,59.30
2023-05-02T01:14:10.780Z,60.26
2023-05-02T01:15:10.776Z,60.26
2023-05-02T01:16:10.800Z,57.85
2023-05-02T01:17:10.730Z,58.33
2023-05-02T01:18:10.748Z,58.33
2023-05-02T01:19:10.715Z,60.42
2023-05-02T01:20:10.729Z,60.10
2023-05-02T01:21:10.702Z,61.87
2023-05-02T01:22:10.683Z,60.75
2023-05-02T01:23:10.680Z,59.62
2023-05-02T01:24:10.683Z,60.10
2023-05-02T01:25:10.711Z,61.39
2023-05-02T01:26:10.667Z,61.87
2023-05-02T01:27:10.648Z,59.46
2023-05-02T01:28:10.626Z,60.59
2023-05-02T01:29:10.614Z,62.68
2023-05-02T01:30:10.644Z,61.55
2023-05-02T01:31:10.653Z,60.10
2023-05-02T01:32:10.599Z,60.59
2023-05-02T01:33:10.611Z,61.23
2023-05-02T01:34:10.560Z,60.10
2023-05-02T01:35:10.601Z,60.91
2023-05-02T01:36:10.556Z,61.39
2023-05-02T01:37:10.527Z,61.39
2023-05-02T01:38:10.521Z,62.52
2023-05-02T01:39:10.529Z,59.14
2023-05-02T01:40:10.528Z,61.71
2023-05-02T01:41:10.595Z,61.07
2023-05-02T01:42:10.494Z,60.91
2023-05-02T01:43:10.499Z,61.87
2023-05-02T01:44:10.504Z,60.42
2023-05-02T01:45:10.499Z,60.59
2023-05-02T01:46:10.475Z,59.62
2023-05-02T01:47:10.497Z,60.26
2023-05-02T01:48:10.481Z,62.52
2023-05-02T01:49:10.432Z,61.07
2023-05-02T01:50:10.477Z,61.07
2023-05-02T01:51:10.419Z,60.91
2023-05-02T01:52:10.392Z,61.23
2023-05-02T01:53:10.383Z,60.42
2023-05-02T01:54:10.374Z,61.39
2023-05-02T01:55:10.397Z,62.04
2023-05-02T01:56:10.352Z,61.55
2023-05-02T01:57:10.344Z,60.59
2023-05-02T01:58:10.345Z,61.39
2023-05-02T01:59:10.335Z,61.39
2023-05-02T02:00:10.353Z,62.04
2023-05-02T02:01:10.374Z,62.68
2023-05-02T02:02:10.307Z,62.36
2023-05-02T02:03:11.311Z,61.71
2023-05-02T02:04:10.335Z,62.20
2023-05-02T02:05:10.305Z,61.39
2023-05-02T02:06:10.342Z,62.04
2023-05-02T02:07:10.268Z,63.33
2023-05-02T02:08:10.248Z,63.49
2023-05-02T02:09:10.224Z,62.52
2023-05-02T02:10:10.277Z,61.71
2023-05-02T02:11:10.208Z,62.52
2023-05-02T02:12:10.212Z,60.91
2023-05-02T02:13:10.211Z,62.04
2023-05-02T02:14:10.187Z,60.91
2023-05-02T02:15:10.184Z,62.04
2023-05-02T02:16:10.207Z,60.10
2023-05-02T02:17:10.198Z,59.94
2023-05-02T02:18:10.215Z,60.59
2023-05-02T02:19:10.135Z,62.36
2023-05-02T02:20:10.159Z,62.36
2023-05-02T02:21:10.102Z,59.62
2023-05-02T02:22:10.116Z,58.81
2023-05-02T02:23:10.106Z,61.39
2023-05-02T02:24:10.080Z,60.75
2023-05-02T02:25:10.116Z,61.55
2023-05-02T02:26:10.089Z,62.20
2023-05-02T02:27:10.071Z,61.87
2023-05-02T02:28:10.070Z,61.55
2023-05-02T02:29:10.036Z,63.33
2023-05-02T02:30:10.050Z,62.20
2023-05-02T02:31:10.065Z,63.16
2023-05-02T02:32:10.013Z,62.04
2023-05-02T02:33:10.050Z,63.49
2023-05-02T02:34:09.985Z,63.97
2023-05-02T02:35:10.003Z,63.65
2023-05-02T02:36:09.965Z,62.04
2023-05-02T02:37:09.958Z,63.33
2023-05-02T02:38:10.027Z,62.04
2023-05-02T02:39:09.932Z,64.13
2023-05-02T02:40:09.952Z,65.74
2023-05-02T02:41:09.912Z,64.13
2023-05-02T02:42:09.903Z,64.13
2023-05-02T02:43:09.921Z,63.00
2023-05-02T02:44:11.608Z,62.20
2023-05-02T02:45:09.878Z,62.36
2023-05-02T02:46:09.870Z,62.36
2023-05-02T02:47:09.841Z,61.55
2023-05-02T02:48:09.907Z,62.84
2023-05-02T02:49:09.831Z,62.04
2023-05-02T02:50:10.010Z,63.16
2023-05-02T02:51:09.817Z,62.20
2023-05-02T02:52:09.793Z,63.33
2023-05-02T02:53:09.800Z,63.97
2023-05-02T02:54:23.028Z,64.13
2023-05-02T02:55:11.813Z,65.26
2023-05-02T02:56:09.763Z,63.97
2023-05-02T02:57:09.749Z,64.29
2023-05-02T02:58:09.732Z,63.49
2023-05-02T02:59:09.725Z,63.65
2023-05-02T03:00:09.784Z,64.94
2023-05-02T03:01:09.738Z,65.58
2023-05-02T03:02:09.809Z,64.61
2023-05-02T03:03:09.868Z,64.45
2023-05-02T03:04:09.693Z,64.61
2023-05-02T03:05:09.690Z,66.39
2023-05-02T03:06:09.705Z,65.90
2023-05-02T03:07:09.663Z,65.74
2023-05-02T03:08:09.630Z,66.71
2023-05-02T03:09:09.663Z,66.23
2023-05-02T03:10:09.643Z,64.61
2023-05-02T03:11:09.634Z,66.06
2023-05-02T03:12:09.611Z,64.45
2023-05-02T03:13:09.602Z,64.61
2023-05-02T03:14:09.573Z,64.78
2023-05-02T03:15:09.578Z,64.61
2023-05-02T03:16:10.746Z,64.61
2023-05-02T03:17:09.544Z,64.13
2023-05-02T03:18:09.596Z,65.90
2023-05-02T03:19:09.569Z,64.94
2023-05-02T03:20:09.549Z,64.94
2023-05-02T03:21:09.570Z,65.10
2023-05-02T03:22:09.520Z,66.23
2023-05-02T03:23:09.492Z,63.97
2023-05-02T03:24:09.512Z,65.10
2023-05-02T03:25:09.491Z,65.10
2023-05-02T03:26:09.503Z,66.23
2023-05-02T03:27:09.460Z,65.58
2023-05-02T03:28:09.461Z,64.94
2023-05-02T03:29:09.448Z,64.13
2023-05-02T03:30:09.462Z,63.33
2023-05-02T03:31:09.459Z,64.61
2023-05-02T03:32:09.512Z,66.23
2023-05-02T03:33:09.523Z,64.61
2023-05-02T03:34:09.408Z,64.13
2023-05-02T03:35:09.392Z,64.94
2023-05-02T03:36:09.375Z,65.58
2023-05-02T03:37:09.369Z,67.51
2023-05-02T03:38:09.345Z,65.90
2023-05-02T03:39:09.350Z,64.29
2023-05-02T03:40:09.323Z,64.29
2023-05-02T03:41:09.355Z,64.94
2023-05-02T03:42:09.321Z,64.94
2023-05-02T03:43:09.333Z,64.94
2023-05-02T03:44:09.297Z,66.06
2023-05-02T03:45:09.281Z,65.58
2023-05-02T03:46:09.328Z,64.61
2023-05-02T03:47:09.411Z,67.19
2023-05-02T03:48:09.296Z,66.39
2023-05-02T03:49:09.262Z,67.19
2023-05-02T03:50:09.279Z,65.58
2023-05-02T03:51:09.262Z,65.90
2023-05-02T03:52:09.225Z,65.74
2023-05-02T03:53:09.211Z,66.23
2023-05-02T03:54:09.188Z,66.71
2023-05-02T03:55:09.203Z,65.58
2023-05-02T03:56:09.216Z,65.10
2023-05-02T03:57:09.187Z,64.78
2023-05-02T03:58:09.161Z,66.23
2023-05-02T03:59:10.204Z,65.90
2023-05-02T04:00:09.142Z,65.58
2023-05-02T04:01:09.173Z,65.74
2023-05-02T04:02:09.171Z,64.94
2023-05-02T04:03:09.191Z,65.42
2023-05-02T04:04:09.144Z,65.74
2023-05-02T04:05:09.097Z,65.90
2023-05-02T04:06:09.213Z,65.58
2023-05-02T04:07:10.067Z,64.29
2023-05-02T04:08:09.068Z,63.97
2023-05-02T04:09:09.056Z,63.97
2023-05-02T04:10:09.038Z,64.61
2023-05-02T04:11:09.044Z,65.10
2023-05-02T04:12:09.009Z,65.26
2023-05-02T04:13:40.923Z,63.97
2023-05-02T04:14:08.993Z,65.74
2023-05-02T04:15:08.971Z,66.39
2023-05-02T04:16:08.978Z,64.94
2023-05-02T04:17:08.978Z,65.42
2023-05-02T04:18:09.001Z,66.39
2023-05-02T04:19:08.933Z,66.23
2023-05-02T04:20:09.083Z,66.87
2023-05-02T04:21:08.947Z,65.74
2023-05-02T04:22:08.895Z,66.87
2023-05-02T04:23:08.893Z,66.87
2023-05-02T04:24:08.895Z,67.03
2023-05-02T04:25:08.871Z,67.51
2023-05-02T04:26:08.876Z,67.68
2023-05-02T04:27:08.857Z,67.35
2023-05-02T04:28:08.834Z,67.35
2023-05-02T04:29:08.839Z,67.35
2023-05-02T04:30:08.823Z,67.03
2023-05-02T04:31:08.906Z,67.35
2023-05-02T04:32:08.808Z,69.29
2023-05-02T04:33:08.861Z,68.00
2023-05-02T04:34:08.774Z,68.00
2023-05-02T04:35:08.767Z,67.84
2023-05-02T04:36:08.851Z,68.00
2023-05-02T04:37:08.745Z,67.35
2023-05-02T04:38:08.744Z,67.35
2023-05-02T04:39:08.725Z,67.84
2023-05-02T04:40:08.724Z,68.00
2023-05-02T04:41:09.676Z,67.35
2023-05-02T04:42:08.708Z,67.84
2023-05-02T04:43:08.689Z,67.84
2023-05-02T04:44:08.687Z,67.84
2023-05-02T04:45:08.664Z,68.00
2023-05-02T04:46:08.737Z,67.19
2023-05-02T04:47:08.641Z,67.51
2023-05-02T04:48:08.669Z,67.68
2023-05-02T04:49:08.628Z,67.51
2023-05-02T04:50:08.652Z,67.51
2023-05-02T04:51:08.625Z,67.19
2023-05-02T04:52:08.638Z,67.84
2023-05-02T04:53:08.591Z,67.68
2023-05-02T04:54:08.572Z,67.03
2023-05-02T04:55:08.574Z,67.35
2023-05-02T04:56:08.576Z,67.68
2023-05-02T04:57:08.541Z,68.80
2023-05-02T04:58:08.534Z,68.00
2023-05-02T04:59:08.532Z,68.32
2023-05-02T05:00:08.523Z,66.71
2023-05-02T05:01:08.553Z,67.03
2023-05-02T05:02:08.700Z,67.35
2023-05-02T05:03:08.523Z,67.84
2023-05-02T05:04:08.632Z,65.74
2023-05-02T05:05:08.515Z,65.90
2023-05-02T05:06:08.498Z,67.03
2023-05-02T05:07:08.622Z,65.10
2023-05-02T05:08:08.427Z,65.42
2023-05-02T05:09:08.420Z,66.23
2023-05-02T05:10:08.439Z,66.39
2023-05-02T05:11:08.408Z,66.87
2023-05-02T05:12:08.417Z,66.06
2023-05-02T05:13:08.404Z,65.90
2023-05-02T05:14:08.378Z,65.90
2023-05-02T05:15:08.403Z,66.23
2023-05-02T05:16:08.417Z,65.42
2023-05-02T05:17:08.386Z,65.58
2023-05-02T05:18:08.407Z,65.58
2023-05-02T05:19:08.352Z,66.06
2023-05-02T05:20:09.586Z,65.58
2023-05-02T05:21:08.327Z,67.84
2023-05-02T05:22:08.400Z,66.39
2023-05-02T05:23:08.280Z,66.87
2023-05-02T05:24:08.288Z,67.19
2023-05-02T05:25:08.477Z,66.87
2023-05-02T05:26:08.263Z,65.26
2023-05-02T05:27:08.301Z,65.58
2023-05-02T05:28:08.236Z,66.87
2023-05-02T05:29:08.280Z,66.06
2023-05-02T05:30:08.219Z,64.78
2023-05-02T05:31:08.219Z,65.58
2023-05-02T05:32:08.316Z,67.03
2023-05-02T05:33:08.323Z,66.55
2023-05-02T05:34:08.203Z,67.03
2023-05-02T05:35:08.165Z,66.87
2023-05-02T05:36:08.160Z,66.55
2023-05-02T05:37:08.205Z,67.03
2023-05-02T05:38:08.143Z,65.74
2023-05-02T05:39:08.128Z,66.23
2023-05-02T05:40:08.123Z,65.58
2023-05-02T05:41:08.110Z,66.55
2023-05-02T05:42:08.140Z,66.55
2023-05-02T05:43:08.081Z,67.03
2023-05-02T05:44:08.088Z,65.90
2023-05-02T05:45:08.096Z,67.03
2023-05-02T05:46:08.081Z,66.39
2023-05-02T05:47:08.178Z,66.23
2023-05-02T05:48:08.137Z,66.06
2023-05-02T05:49:08.035Z,67.84
2023-05-02T05:50:08.050Z,67.19
2023-05-02T05:51:08.027Z,67.19
2023-05-02T05:52:08.064Z,67.84
2023-05-02T05:53:08.005Z,68.80
2023-05-02T05:54:08.022Z,68.00
2023-05-02T05:55:07.981Z,68.16
2023-05-02T05:56:08.012Z,67.03
2023-05-02T05:57:08.012Z,69.29
2023-05-02T05:58:07.963Z,68.64
2023-05-02T05:59:07.949Z,68.16
2023-05-02T06:00:07.931Z,68.32
2023-05-02T06:01:07.907Z,68.32
2023-05-02T06:02:08.989Z,68.48
2023-05-02T06:03:09.930Z,68.32
2023-05-02T06:04:08.982Z,67.03
2023-05-02T06:05:07.914Z,67.35
2023-05-02T06:06:07.902Z,67.84
2023-05-02T06:07:07.892Z,67.51
2023-05-02T06:08:07.846Z,68.00
2023-05-02T06:09:07.835Z,66.39
2023-05-02T06:10:07.843Z,67.35
2023-05-02T06:11:07.824Z,65.10
2023-05-02T06:12:07.858Z,65.58
2023-05-02T06:13:07.799Z,67.35
2023-05-02T06:14:07.825Z,66.39
2023-05-02T06:15:07.788Z,64.94
2023-05-02T06:16:07.792Z,67.19
2023-05-02T06:17:07.808Z,66.71
2023-05-02T06:18:07.896Z,67.68
2023-05-02T06:19:07.771Z,66.87
2023-05-02T06:20:07.758Z,68.32
2023-05-02T06:21:07.745Z,67.68
2023-05-02T06:22:07.754Z,68.16
2023-05-02T06:23:07.696Z,67.51
2023-05-02T06:24:07.701Z,67.03
2023-05-02T06:25:07.661Z,66.87
2023-05-02T06:26:07.679Z,66.06
2023-05-02T06:27:07.715Z,65.90
2023-05-02T06:28:07.648Z,67.35
2023-05-02T06:29:07.654Z,66.06
2023-05-02T06:30:07.638Z,66.06
2023-05-02T06:31:07.806Z,66.87
2023-05-02T06:32:07.708Z,66.39
2023-05-02T06:33:07.716Z,66.39
2023-05-02T06:34:07.584Z,66.71
2023-05-02T06:35:08.085Z,68.00
2023-05-02T06:36:07.574Z,67.84
2023-05-02T06:37:07.574Z,68.64
2023-05-02T06:38:07.538Z,66.87
2023-05-02T06:39:07.532Z,67.68
2023-05-02T06:40:07.505Z,66.06
2023-05-02T06:41:07.501Z,66.87
2023-05-02T06:42:07.515Z,68.16
2023-05-02T06:43:07.497Z,68.80
2023-05-02T06:44:07.466Z,68.96
2023-05-02T06:45:07.457Z,68.16
2023-05-02T06:46:07.497Z,67.35
2023-05-02T06:47:07.541Z,67.51
2023-05-02T06:48:07.470Z,66.71
2023-05-02T06:49:07.415Z,68.16
2023-05-02T06:50:07.406Z,68.64
2023-05-02T06:51:07.391Z,68.32
2023-05-02T06:52:07.417Z,68.80
2023-05-02T06:53:07.396Z,69.45
2023-05-02T06:54:07.376Z,67.68
2023-05-02T06:55:07.360Z,68.96
2023-05-02T06:56:07.353Z,68.64
2023-05-02T06:57:07.543Z,68.16
2023-05-02T06:58:07.335Z,68.64
2023-05-02T06:59:07.322Z,67.35
2023-05-02T07:00:07.315Z,70.09
2023-05-02T07:01:07.390Z,70.25
2023-05-02T07:02:07.326Z,68.64
2023-05-02T07:03:07.343Z,67.68
2023-05-02T07:04:07.290Z,67.84
2023-05-02T07:05:07.257Z,68.64
2023-05-02T07:06:07.293Z,67.51
2023-05-02T07:07:07.254Z,67.35
2023-05-02T07:08:07.227Z,66.23
2023-05-02T07:09:07.219Z,66.71
2023-05-02T07:10:07.212Z,65.90
2023-05-02T07:11:07.197Z,65.74
2023-05-02T07:12:07.280Z,67.03
2023-05-02T07:13:07.200Z,67.84
2023-05-02T07:14:07.168Z,66.06
2023-05-02T07:15:07.218Z,65.58
2023-05-02T07:16:07.198Z,65.26
2023-05-02T07:17:07.292Z,66.71
2023-05-02T07:18:07.223Z,67.35
2023-05-02T07:19:07.139Z,66.39
2023-05-02T07:20:07.124Z,65.42
2023-05-02T07:21:07.099Z,67.35
2023-05-02T07:22:07.091Z,67.19
2023-05-02T07:23:07.176Z,65.58
2023-05-02T07:24:07.064Z,65.58
2023-05-02T07:25:07.047Z,66.39
2023-05-02T07:26:07.052Z,66.06
2023-05-02T07:27:07.045Z,64.45
2023-05-02T07:28:08.071Z,66.55
2023-05-02T07:29:07.035Z,65.42
2023-05-02T07:30:07.014Z,66.39
2023-05-02T07:31:07.015Z,65.74
2023-05-02T07:32:07.033Z,66.71
2023-05-02T07:33:07.067Z,65.90
2023-05-02T07:34:06.975Z,66.23
2023-05-02T07:35:06.956Z,64.29
2023-05-02T07:36:06.947Z,67.03
2023-05-02T07:37:06.929Z,67.68
2023-05-02T07:38:06.958Z,65.90
2023-05-02T07:39:06.923Z,66.55
2023-05-02T07:40:06.936Z,68.80
2023-05-02T07:41:06.912Z,66.87
2023-05-02T07:42:06.905Z,67.19
2023-05-02T07:43:07.899Z,66.87
2023-05-02T07:44:06.893Z,65.90
2023-05-02T07:45:06.861Z,67.51
2023-05-02T07:46:06.951Z,66.87
2023-05-02T07:47:06.872Z,68.00
2023-05-02T07:48:06.935Z,67.19
2023-05-02T07:49:06.844Z,66.55
2023-05-02T07:50:06.823Z,67.35
2023-05-02T07:51:06.832Z,66.39
2023-05-02T07:52:06.819Z,67.51
2023-05-02T07:53:06.828Z,66.71
2023-05-02T07:54:06.803Z,67.68
2023-05-02T07:55:06.777Z,67.84
2023-05-02T07:56:06.788Z,67.03
2023-05-02T07:57:06.765Z,66.87
2023-05-02T07:58:06.792Z,65.58
2023-05-02T07:59:06.746Z,64.94
2023-05-02T08:00:06.731Z,64.78
2023-05-02T08:01:06.710Z,65.42
2023-05-02T08:02:06.728Z,66.39
2023-05-02T08:03:06.848Z,65.74
2023-05-02T08:04:06.871Z,66.87
2023-05-02T08:05:06.772Z,67.19
2023-05-02T08:06:06.725Z,65.26
2023-05-02T08:07:06.667Z,65.10
2023-05-02T08:08:06.682Z,64.45
2023-05-02T08:09:06.660Z,65.42
2023-05-02T08:10:06.646Z,67.19
2023-05-02T08:11:06.637Z,67.51
2023-05-02T08:12:06.621Z,66.55
2023-05-02T08:13:06.631Z,67.03
2023-05-02T08:14:06.603Z,66.23
2023-05-02T08:15:06.821Z,67.03
2023-05-02T08:16:06.648Z,68.32
2023-05-02T08:17:06.568Z,68.32
2023-05-02T08:18:06.607Z,67.35
2023-05-02T08:19:06.546Z,67.35
2023-05-02T08:20:06.542Z,66.55
2023-05-02T08:21:06.551Z,68.00
2023-05-02T08:22:06.518Z,65.90
2023-05-02T08:23:06.544Z,66.55
2023-05-02T08:24:06.488Z,68.00
2023-05-02T08:25:06.492Z,67.03
2023-05-02T08:26:06.487Z,67.68
2023-05-02T08:27:06.464Z,67.19
2023-05-02T08:28:06.468Z,67.68
2023-05-02T08:29:06.451Z,65.58
2023-05-02T08:30:06.967Z,66.87
2023-05-02T08:31:06.549Z,66.23
2023-05-02T08:32:06.542Z,64.13
2023-05-02T08:33:06.496Z,66.71
2023-05-02T08:34:06.399Z,65.90
2023-05-02T08:35:06.367Z,68.16
2023-05-02T08:36:06.384Z,67.03
2023-05-02T08:37:06.360Z,67.68
2023-05-02T08:38:06.383Z,67.51
2023-05-02T08:39:06.345Z,68.00
2023-05-02T08:40:06.363Z,67.51
2023-05-02T08:41:06.341Z,64.78
2023-05-02T08:42:07.311Z,65.90
2023-05-02T08:43:06.355Z,66.23
2023-05-02T08:44:06.295Z,66.39
2023-05-02T08:45:06.280Z,66.71
2023-05-02T08:46:06.268Z,68.80
2023-05-02T08:47:06.337Z,66.87
2023-05-02T08:48:06.368Z,65.58
2023-05-02T08:49:06.249Z,66.87
2023-05-02T08:50:06.236Z,67.03
2023-05-02T08:51:06.223Z,67.68
2023-05-02T08:52:06.206Z,68.00
2023-05-02T08:53:06.265Z,67.51
2023-05-02T08:54:06.182Z,66.23
2023-05-02T08:55:06.181Z,65.90
2023-05-02T08:56:06.171Z,66.39
2023-05-02T08:57:06.169Z,67.68
2023-05-02T08:58:06.205Z,67.35
2023-05-02T08:59:06.132Z,66.06
2023-05-02T09:00:06.151Z,65.90
2023-05-02T09:01:06.157Z,66.23
2023-05-02T09:02:06.133Z,66.55
2023-05-02T09:03:06.190Z,66.87
2023-05-02T09:04:06.133Z,67.35
2023-05-02T09:05:06.096Z,66.39
2023-05-02T09:06:06.133Z,64.94
2023-05-02T09:07:06.065Z,65.58
2023-05-02T09:08:06.080Z,66.23
2023-05-02T09:09:06.041Z,68.16
2023-05-02T09:10:06.029Z,65.74
2023-05-02T09:11:06.025Z,65.74
2023-05-02T09:12:06.020Z,67.35
2023-05-02T09:13:06.024Z,67.68
2023-05-02T09:14:05.993Z,67.84
2023-05-02T09:15:05.973Z,68.64
2023-05-02T09:16:06.000Z,67.19
2023-05-02T09:17:05.998Z,68.96
2023-05-02T09:18:06.073Z,68.32
2023-05-02T09:19:05.944Z,69.13
2023-05-02T09:20:05.938Z,68.64
2023-05-02T09:21:05.919Z,68.80
2023-05-02T09:22:05.912Z,68.96
2023-05-02T09:23:05.920Z,67.84
2023-05-02T09:24:05.901Z,68.16
2023-05-02T09:25:05.896Z,68.16
2023-05-02T09:26:05.877Z,68.32
2023-05-02T09:27:05.874Z,69.45
2023-05-02T09:28:05.873Z,67.84
2023-05-02T09:29:05.838Z,68.80
2023-05-02T09:30:05.848Z,68.16
2023-05-02T09:31:05.865Z,68.32
2023-05-02T09:32:05.905Z,67.84
2023-05-02T09:33:05.857Z,68.16
2023-05-02T09:34:05.823Z,68.32
2023-05-02T09:35:05.785Z,68.64
2023-05-02T09:36:05.768Z,68.64
2023-05-02T09:37:05.853Z,68.48
2023-05-02T09:38:05.757Z,70.09
2023-05-02T09:39:05.786Z,70.42
2023-05-02T09:40:05.746Z,69.93
2023-05-02T09:41:05.789Z,69.29
2023-05-02T09:42:05.722Z,69.45
2023-05-02T09:43:05.707Z,69.77
2023-05-02T09:44:05.741Z,68.16
2023-05-02T09:45:05.691Z,68.48
2023-05-02T09:46:05.750Z,69.29
2023-05-02T09:47:05.670Z,68.32
2023-05-02T09:48:05.676Z,67.68
2023-05-02T09:49:05.686Z,68.32
2023-05-02T09:50:05.619Z,68.16
2023-05-02T09:51:05.662Z,68.32
2023-05-02T09:52:05.600Z,68.80
2023-05-02T09:53:05.634Z,69.93
2023-05-02T09:54:05.595Z,69.61
2023-05-02T09:55:05.581Z,67.35
2023-05-02T09:56:05.582Z,66.87
2023-05-02T09:57:05.556Z,68.16
2023-05-02T09:58:05.588Z,69.45
2023-05-02T09:59:05.546Z,68.48
2023-05-02T10:00:05.529Z,68.48
2023-05-02T10:01:05.561Z,70.42
2023-05-02T10:02:05.526Z,69.93
2023-05-02T10:03:05.561Z,68.96
2023-05-02T10:04:05.564Z,68.16
2023-05-02T10:05:05.484Z,68.32
2023-05-02T10:06:05.640Z,68.16
2023-05-02T10:07:05.446Z,68.32
2023-05-02T10:08:05.470Z,69.45
2023-05-02T10:09:05.459Z,68.32
2023-05-02T10:10:05.442Z,69.13
2023-05-02T10:11:05.489Z,67.35
2023-05-02T10:12:05.418Z,68.96
2023-05-02T10:13:05.456Z,68.48
2023-05-02T10:14:05.389Z,68.80
2023-05-02T10:15:07.301Z,68.32
2023-05-02T10:16:37.782Z,68.48
2023-05-02T10:17:05.372Z,68.16
2023-05-02T10:18:05.414Z,68.80
2023-05-02T10:19:05.337Z,69.29
2023-05-02T10:20:05.332Z,68.96
2023-05-02T10:21:05.313Z,69.61
2023-05-02T10:22:05.312Z,68.96
2023-05-02T10:23:05.313Z,70.58
2023-05-02T10:24:05.286Z,67.68
2023-05-02T10:25:05.432Z,69.77
2023-05-02T10:26:05.273Z,68.48
2023-05-02T10:27:05.261Z,70.58
2023-05-02T10:28:06.162Z,70.09
2023-05-02T10:29:05.238Z,69.13
2023-05-02T10:30:05.238Z,68.96
2023-05-02T10:31:05.232Z,68.96
2023-05-02T10:32:05.249Z,70.09
2023-05-02T10:33:05.275Z,70.42
2023-05-02T10:34:05.186Z,71.06
2023-05-02T10:35:05.225Z,69.45
2023-05-02T10:36:05.169Z,69.77
2023-05-02T10:37:05.158Z,69.77
2023-05-02T10:38:05.173Z,70.90
2023-05-02T10:39:05.150Z,70.09
2023-05-02T10:40:05.164Z,69.29
2023-05-02T10:41:05.114Z,69.45
2023-05-02T10:42:05.139Z,68.32
2023-05-02T10:43:05.098Z,70.25
2023-05-02T10:44:05.089Z,70.58
2023-05-02T10:45:05.184Z,69.61
2023-05-02T10:46:05.068Z,68.80
2023-05-02T10:47:05.117Z,68.96
2023-05-02T10:48:05.138Z,69.13
2023-05-02T10:49:05.057Z,69.77
2023-05-02T10:50:05.048Z,69.93
2023-05-02T10:51:05.029Z,68.96
2023-05-02T10:52:05.015Z,68.96
2023-05-02T10:53:05.022Z,68.00
2023-05-02T10:54:04.986Z,70.25
2023-05-02T10:55:04.985Z,71.06
2023-05-02T10:56:04.980Z,69.45
2023-05-02T10:57:04.964Z,69.45
2023-05-02T10:58:05.010Z,69.93
2023-05-02T10:59:04.940Z,69.13
2023-05-02T11:00:04.939Z,68.80
2023-05-02T11:01:04.997Z,69.29
2023-05-02T11:02:07.101Z,70.25
2023-05-02T11:03:06.042Z,69.61
2023-05-02T11:04:04.907Z,69.45
2023-05-02T11:05:05.219Z,71.06
2023-05-02T11:06:04.907Z,69.77
2023-05-02T11:07:04.877Z,70.42
2023-05-02T11:08:04.977Z,69.29
2023-05-02T11:09:04.846Z,69.61
2023-05-02T11:10:04.834Z,69.61
2023-05-02T11:11:04.825Z,70.42
2023-05-02T11:12:04.886Z,69.93
2023-05-02T11:13:04.824Z,70.09
2023-05-02T11:14:04.798Z,70.42
2023-05-02T11:15:04.801Z,70.74
2023-05-02T11:16:04.805Z,70.09
2023-05-02T11:17:04.840Z,71.54
2023-05-02T11:18:04.850Z,69.93
2023-05-02T11:19:04.751Z,70.42
2023-05-02T11:20:04.784Z,70.42
2023-05-02T11:21:04.799Z,71.06
2023-05-02T11:22:04.729Z,69.45
2023-05-02T11:23:04.730Z,69.45
2023-05-02T11:24:04.710Z,67.19
2023-05-02T11:25:04.692Z,68.96
2023-05-02T11:26:04.683Z,68.80
2023-05-02T11:27:04.673Z,71.06
2023-05-02T11:28:04.693Z,70.58
2023-05-02T11:29:04.646Z,71.38
2023-05-02T11:30:04.655Z,69.93
2023-05-02T11:31:04.635Z,71.38
2023-05-02T11:32:04.704Z,70.74
2023-05-02T11:33:04.692Z,70.25
2023-05-02T11:34:04.650Z,70.25
2023-05-02T11:35:04.610Z,70.25
2023-05-02T11:36:04.597Z,71.54
2023-05-02T11:37:04.573Z,70.58
2023-05-02T11:38:04.620Z,68.64
2023-05-02T11:39:04.554Z,67.51
2023-05-02T11:40:04.548Z,71.87
2023-05-02T11:41:04.671Z,71.54
2023-05-02T11:42:04.544Z,71.54
2023-05-02T11:43:04.537Z,69.93
2023-05-02T11:44:04.502Z,72.51
2023-05-02T11:45:04.740Z,71.70
2023-05-02T11:46:04.542Z,70.25
2023-05-02T11:47:04.493Z,70.74
2023-05-02T11:48:04.727Z,70.74
2023-05-02T11:49:06.282Z,71.38
2023-05-02T11:50:04.465Z,71.54
2023-05-02T11:51:04.437Z,70.25
2023-05-02T11:52:04.423Z,68.80
2023-05-02T11:53:04.433Z,67.35
2023-05-02T11:54:04.404Z,68.96
2023-05-02T11:55:04.515Z,70.58
2023-05-02T11:56:04.398Z,70.58
2023-05-02T11:57:04.375Z,69.45
2023-05-02T11:58:04.387Z,71.22
2023-05-02T11:59:04.375Z,70.74
2023-05-02T12:00:04.339Z,71.38
2023-05-02T12:01:04.334Z,69.61
2023-05-02T12:02:04.394Z,68.96
2023-05-02T12:03:05.427Z,70.42
2023-05-02T12:04:04.316Z,69.61
2023-05-02T12:05:04.819Z,70.58
2023-05-02T12:06:04.511Z,70.58
2023-05-02T12:07:04.344Z,70.25
2023-05-02T12:08:04.274Z,70.74
2023-05-02T12:09:04.268Z,70.58
2023-05-02T12:10:04.255Z,70.90
2023-05-02T12:11:04.249Z,68.64
2023-05-02T12:12:04.218Z,70.42
2023-05-02T12:13:04.217Z,70.58
2023-05-02T12:14:04.197Z,67.51
2023-05-02T12:15:04.379Z,68.32
2023-05-02T12:16:04.239Z,69.29
2023-05-02T12:17:04.210Z,70.42
2023-05-02T12:18:04.256Z,69.29
2023-05-02T12:19:04.142Z,68.64
2023-05-02T12:20:04.149Z,67.84
2023-05-02T12:21:04.170Z,68.00
2023-05-02T12:22:04.125Z,68.80
2023-05-02T12:23:04.118Z,70.25
2023-05-02T12:24:04.120Z,69.45
2023-05-02T12:25:04.516Z,68.48
2023-05-02T12:26:04.118Z,70.25
2023-05-02T12:27:04.075Z,69.13
2023-05-02T12:28:04.073Z,69.29
2023-05-02T12:29:04.048Z,70.42
2023-05-02T12:30:04.412Z,68.80
2023-05-02T12:31:04.102Z,70.74
2023-05-02T12:32:04.030Z,70.58
2023-05-02T12:33:04.038Z,69.45
2023-05-02T12:34:04.010Z,68.64
2023-05-02T12:35:04.083Z,69.77
2023-05-02T12:36:04.041Z,69.45
2023-05-02T12:37:03.980Z,70.74
2023-05-02T12:38:03.981Z,69.45
2023-05-02T12:39:03.946Z,68.16
2023-05-02T12:40:04.160Z,70.58
2023-05-02T12:41:03.927Z,67.03
2023-05-02T12:42:03.917Z,69.93
2023-05-02T12:43:03.953Z,69.13
2023-05-02T12:44:03.963Z,68.80
2023-05-02T12:45:03.885Z,70.09
2023-05-02T12:46:03.912Z,68.96
2023-05-02T12:47:03.961Z,69.29
2023-05-02T12:48:03.919Z,68.64
2023-05-02T12:49:03.851Z,68.32
2023-05-02T12:50:04.181Z,69.29
2023-05-02T12:51:03.852Z,68.64
2023-05-02T12:52:03.821Z,68.96